Limpio, sin nubes
Limpio, con algunas nubes bajas
Limpio, con algunas nubes bajas
Parcialmente nublado
Parcialmente nublado
Parcialmente nublado
Parcialmente nublado
(°C)
10°
10°
10°
10°
10°
10°
10°
10°
(°C)
E
E
ESE
ESE
ESE
ESE
ESE
(km/h)
11-18
9-17
9-21
10-23
12-25
14-24
14-24
(mm)
0
0
0
0
0
0
0
(%)
0
0
0
0
0
0
0

Elevación del sol

/ 37.2°
sun-icon
UV 4
06:10
17:20
Gibosa creciente (157°)
15:15
05:18

METAR a Mashhad (OIMM)

Hora Condiciones Temperatura/
Punto de condensación
Viento Visibilidad Tiempo Nubes Presión Cambiar Bruto
VFR 10°C / 0°C 90º 4kt 9700m - Few Clouds 3500ft 1022 - OIMM 220930Z 09004KT 9999 FEW035 10/00 Q1022 A3019
VFR 9°C / -1°C 110º 6kt 9700m - Few Clouds 3500ft 1022 - OIMM 220900Z 11006KT 9999 FEW035 09/M01 Q1022 A3021
VFR 9°C / -1°C 70º 6kt 9700m - Clouds and Visibility OK 1023 - OIMM 220830Z 07006KT CAVOK 09/M01 Q1023 A3022
VFR 8°C / -1°C 120º 4kt 9700m - Scattered Clouds 8000ft 1024 - OIMM 220800Z 12004KT 9999 SCT080 08/M01 Q1024 A3024
VFR 7°C / -2°C 70º 4kt 9700m - Scattered Clouds 8000ft 1024 - OIMM 220730Z 07004KT 9999 SCT080 07/M02 Q1024 A3025
VFR 7°C / -2°C 150º 4kt 9700m - Broken Clouds 7000ft 1024 - OIMM 220700Z 15004KT 9999 BKN070 07/M02 Q1024 A3026
VFR 6°C / -1°C 80º 6kt 9700m - Broken Clouds 7000ft 1024 - OIMM 220630Z 08006KT 9999 BKN070 06/M01 Q1024 A3026
VFR 5°C / -1°C 60º 6kt 9700m - Broken Clouds 7000ft 1024 - OIMM 220600Z 06006KT 9999 BKN070 05/M01 Q1024 A3026
VFR 5°C / -2°C 110º 4kt 9700m - Clouds and Visibility OK 1025 - OIMM 220530Z 11004KT CAVOK 05/M02 Q1025 A3027
VFR 4°C / -2°C 100º 4kt 9700m - Clouds and Visibility OK 1024 - OIMM 220500Z 10004KT CAVOK 04/M02 Q1024 A3026
VFR 3°C / -2°C 150º 4kt 9700m - Clouds and Visibility OK 1024 - OIMM 220430Z 15004KT CAVOK 03/M02 Q1024 A3026
VFR 2°C / -3°C 190º 4kt 9700m - Clouds and Visibility OK 1024 - OIMM 220400Z 19004KT CAVOK 02/M03 Q1024 A3025
VFR 1°C / -4°C 220º 6kt 9700m - Clouds and Visibility OK 1024 - OIMM 220330Z 22006KT CAVOK 01/M04 Q1024 A3025
VFR -1°C / -4°C variable 0kt 9700m - Clouds and Visibility OK 1024 - OIMM 220300Z 00000KT CAVOK M01/M04 Q1024 A3024
VFR 0°C / -4°C 200º 6kt 9700m - Clouds and Visibility OK 1023 - OIMM 220230Z 20006KT CAVOK M00/M04 Q1023 A3024
VFR 0°C / -4°C 220º 4kt 9700m - Few Clouds 4000ft
Scattered Clouds 8000ft
1023 - OIMM 220200Z 22004KT 9999 FEW040 SCT080 M00/M04 Q1023 A3024
VFR -1°C / -5°C 180º 4kt 9700m - Clouds and Visibility OK 1023 - OIMM 220130Z 18004KT CAVOK M01/M05 Q1023 A3023
VFR -1°C / -5°C 120º 4kt 9700m - Clouds and Visibility OK 1023 - OIMM 220100Z 12004KT CAVOK M01/M05 Q1023 A3023
VFR -1°C / -5°C 90º 4kt 9700m - Clouds and Visibility OK 1023 - OIMM 220030Z 09004KT CAVOK M01/M05 Q1023 A3022
VFR -1°C / -5°C 320º 4kt 9700m - Clouds and Visibility OK 1023 - OIMM 220000Z 32004KT CAVOK M01/M05 Q1023 A3022
VFR -1°C / -5°C 10º 4kt 9700m - Clouds and Visibility OK 1023 - OIMM 212330Z 01004KT CAVOK M01/M05 Q1023 A3022
VFR 0°C / -4°C variable 0kt 9700m - Clouds and Visibility OK 1023 - OIMM 212300Z 00000KT CAVOK 00/M04 Q1023 A3023
VFR 0°C / -5°C 170º 4kt 9700m - Clouds and Visibility OK 1023 - OIMM 212230Z 17004KT CAVOK M00/M05 Q1023 A3023
VFR 0°C / -4°C 210º 4kt 9700m - Clouds and Visibility OK 1023 - OIMM 212200Z 21004KT CAVOK 00/M04 Q1023 A3024

VFR

10°C / 0°C

[Más]
Viento 90º 4kt
Visibilidad 9700m
Tiempo -
Nubes Few Clouds 3500ft
Presión 1022
Cambiar -
Bruto OIMM 220930Z 09004KT 9999 FEW035 10/00 Q1022 A3019

VFR

9°C / -1°C

[Más]
Viento 110º 6kt
Visibilidad 9700m
Tiempo -
Nubes Few Clouds 3500ft
Presión 1022
Cambiar -
Bruto OIMM 220900Z 11006KT 9999 FEW035 09/M01 Q1022 A3021

VFR

9°C / -1°C

[Más]
Viento 70º 6kt
Visibilidad 9700m
Tiempo -
Nubes Clouds and Visibility OK
Presión 1023
Cambiar -
Bruto OIMM 220830Z 07006KT CAVOK 09/M01 Q1023 A3022

VFR

8°C / -1°C

[Más]
Viento 120º 4kt
Visibilidad 9700m
Tiempo -
Nubes Scattered Clouds 8000ft
Presión 1024
Cambiar -
Bruto OIMM 220800Z 12004KT 9999 SCT080 08/M01 Q1024 A3024

VFR

7°C / -2°C

[Más]
Viento 70º 4kt
Visibilidad 9700m
Tiempo -
Nubes Scattered Clouds 8000ft
Presión 1024
Cambiar -
Bruto OIMM 220730Z 07004KT 9999 SCT080 07/M02 Q1024 A3025

VFR

7°C / -2°C

[Más]
Viento 150º 4kt
Visibilidad 9700m
Tiempo -
Nubes Broken Clouds 7000ft
Presión 1024
Cambiar -
Bruto OIMM 220700Z 15004KT 9999 BKN070 07/M02 Q1024 A3026

VFR

6°C / -1°C

[Más]
Viento 80º 6kt
Visibilidad 9700m
Tiempo -
Nubes Broken Clouds 7000ft
Presión 1024
Cambiar -
Bruto OIMM 220630Z 08006KT 9999 BKN070 06/M01 Q1024 A3026

VFR

5°C / -1°C

[Más]
Viento 60º 6kt
Visibilidad 9700m
Tiempo -
Nubes Broken Clouds 7000ft
Presión 1024
Cambiar -
Bruto OIMM 220600Z 06006KT 9999 BKN070 05/M01 Q1024 A3026

VFR

5°C / -2°C

[Más]
Viento 110º 4kt
Visibilidad 9700m
Tiempo -
Nubes Clouds and Visibility OK
Presión 1025
Cambiar -
Bruto OIMM 220530Z 11004KT CAVOK 05/M02 Q1025 A3027

VFR

4°C / -2°C

[Más]
Viento 100º 4kt
Visibilidad 9700m
Tiempo -
Nubes Clouds and Visibility OK
Presión 1024
Cambiar -
Bruto OIMM 220500Z 10004KT CAVOK 04/M02 Q1024 A3026

VFR

3°C / -2°C

[Más]
Viento 150º 4kt
Visibilidad 9700m
Tiempo -
Nubes Clouds and Visibility OK
Presión 1024
Cambiar -
Bruto OIMM 220430Z 15004KT CAVOK 03/M02 Q1024 A3026

VFR

2°C / -3°C

[Más]
Viento 190º 4kt
Visibilidad 9700m
Tiempo -
Nubes Clouds and Visibility OK
Presión 1024
Cambiar -
Bruto OIMM 220400Z 19004KT CAVOK 02/M03 Q1024 A3025

VFR

1°C / -4°C

[Más]
Viento 220º 6kt
Visibilidad 9700m
Tiempo -
Nubes Clouds and Visibility OK
Presión 1024
Cambiar -
Bruto OIMM 220330Z 22006KT CAVOK 01/M04 Q1024 A3025

VFR

-1°C / -4°C

[Más]
Viento variable 0kt
Visibilidad 9700m
Tiempo -
Nubes Clouds and Visibility OK
Presión 1024
Cambiar -
Bruto OIMM 220300Z 00000KT CAVOK M01/M04 Q1024 A3024

VFR

0°C / -4°C

[Más]
Viento 200º 6kt
Visibilidad 9700m
Tiempo -
Nubes Clouds and Visibility OK
Presión 1023
Cambiar -
Bruto OIMM 220230Z 20006KT CAVOK M00/M04 Q1023 A3024

VFR

0°C / -4°C

[Más]
Viento 220º 4kt
Visibilidad 9700m
Tiempo -
Nubes Few Clouds 4000ft
Scattered Clouds 8000ft
Presión 1023
Cambiar -
Bruto OIMM 220200Z 22004KT 9999 FEW040 SCT080 M00/M04 Q1023 A3024

VFR

-1°C / -5°C

[Más]
Viento 180º 4kt
Visibilidad 9700m
Tiempo -
Nubes Clouds and Visibility OK
Presión 1023
Cambiar -
Bruto OIMM 220130Z 18004KT CAVOK M01/M05 Q1023 A3023

VFR

-1°C / -5°C

[Más]
Viento 120º 4kt
Visibilidad 9700m
Tiempo -
Nubes Clouds and Visibility OK
Presión 1023
Cambiar -
Bruto OIMM 220100Z 12004KT CAVOK M01/M05 Q1023 A3023

VFR

-1°C / -5°C

[Más]
Viento 90º 4kt
Visibilidad 9700m
Tiempo -
Nubes Clouds and Visibility OK
Presión 1023
Cambiar -
Bruto OIMM 220030Z 09004KT CAVOK M01/M05 Q1023 A3022

VFR

-1°C / -5°C

[Más]
Viento 320º 4kt
Visibilidad 9700m
Tiempo -
Nubes Clouds and Visibility OK
Presión 1023
Cambiar -
Bruto OIMM 220000Z 32004KT CAVOK M01/M05 Q1023 A3022

VFR

-1°C / -5°C

[Más]
Viento 10º 4kt
Visibilidad 9700m
Tiempo -
Nubes Clouds and Visibility OK
Presión 1023
Cambiar -
Bruto OIMM 212330Z 01004KT CAVOK M01/M05 Q1023 A3022

VFR

0°C / -4°C

[Más]
Viento variable 0kt
Visibilidad 9700m
Tiempo -
Nubes Clouds and Visibility OK
Presión 1023
Cambiar -
Bruto OIMM 212300Z 00000KT CAVOK 00/M04 Q1023 A3023

VFR

0°C / -5°C

[Más]
Viento 170º 4kt
Visibilidad 9700m
Tiempo -
Nubes Clouds and Visibility OK
Presión 1023
Cambiar -
Bruto OIMM 212230Z 17004KT CAVOK M00/M05 Q1023 A3023

VFR

0°C / -4°C

[Más]
Viento 210º 4kt
Visibilidad 9700m
Tiempo -
Nubes Clouds and Visibility OK
Presión 1023
Cambiar -
Bruto OIMM 212200Z 21004KT CAVOK 00/M04 Q1023 A3024

TAF a Mashhad (OIMM)

From till


From till Wind 100º 8kt. Visibility 7000m. Few Clouds 3000ft.
Temporarly from till Few Clouds 3500ft. Scattered Clouds 4000ft.

Bruto: TAF OIMM 220550Z 2206/2312 10008KT 7000 FEW030 TEMPO 2210/2216 FEW035TCU SCT040

Radar y precipitación nowcast para Mashhad

llovizna
Leve
Moderado
Fuerte
Muy fuerte
Granizo

El marcador del lugar se coloca en Mashhad. Esta animación muestra el radar de precipitación para el intervalo de tiempo seleccionado, así como una previsión de 2h. Las cruces naranjas indican rayos. Datos proporcionados por nowcast.de (disponibles en EE.UU., Europa y Australia). La llovizna o una ligera nevada pueden ser invisibles para el radar. La intensidad de la precipitación está codificada por colores, del turquesa al rojo.

Imágenes actuales de satélite y lluvia para Mashhad, Irán

El marcador del lugar se coloca en Mashhad. [Más]

La imagen de satélite en tiempo real se aprovecha de la combinación de bandas de la luz visible y de la luz infrarroja. Cómo se pueden detectar cambios de temperaturas a través de la banda infrarrojo, la imagen no aparece oscura de noche. No obstante, la niebla y las nubes bajas son apenas visibles en las imágenes de infrarrojo ya que las diferencias de temperaturas entre el suelo y la niebla son muy pequeñas, por eso, son casi invisibles durante la noche. Las imágenes de satélite del Meteosat (Europa) son actualizados en tiempo real cada 5 minutos. Las imágenes del GOES-16/GOES-17 (América del Norte y América del Sur) y Himawari (Asia) son actualizadas cada 10 minutos.

La precipitación se estima a partir del radar y de los satélites. Las estimaciones de la precipitación desde los satélites son menos precisas durante la noche que durante el día.

© 2024 meteoblue, NOAA Satellites GOES-16 and EUMETSAT. Datos de relámpagos proporcionados por nowcast.

Volver al principio
×
Hola,
parece que está usando un bloqueador de anuncios.

La publicidad es esencial para mantener nuestro sitio web gratuito con detalle y precisión únicos.

Por favor, incluya www.meteoblue.com en la lista blanca de su bloqueador de anuncios o considere comprar uno de nuestros productos:

¿Ya hay subscripción?
Entonces, por favor, iniciar sesión.